sensor_id;sensor_type;location;lat;lon;timestamp;P1;durP1;ratioP1;P2;durP2;ratioP2
19193;SDS011;9729;52.296;13.260;2022-07-23T00:01:40;10.67;;;6.13;;
19193;SDS011;9729;52.296;13.260;2022-07-23T00:04:07;8.43;;;6.67;;
19193;SDS011;9729;52.296;13.260;2022-07-23T00:06:33;10.03;;;7.00;;
19193;SDS011;9729;52.296;13.260;2022-07-23T00:08:59;9.37;;;6.53;;
19193;SDS011;9729;52.296;13.260;2022-07-23T00:11:26;8.83;;;6.70;;
19193;SDS011;9729;52.296;13.260;2022-07-23T00:13:52;10.00;;;7.30;;
19193;SDS011;9729;52.296;13.260;2022-07-23T00:16:21;10.97;;;7.13;;
19193;SDS011;9729;52.296;13.260;2022-07-23T00:18:47;9.23;;;7.90;;
19193;SDS011;9729;52.296;13.260;2022-07-23T00:21:14;9.17;;;6.73;;
19193;SDS011;9729;52.296;13.260;2022-07-23T00:23:40;6.57;;;5.87;;
19193;SDS011;9729;52.296;13.260;2022-07-23T00:26:06;11.10;;;7.00;;
19193;SDS011;9729;52.296;13.260;2022-07-23T00:28:33;9.10;;;7.23;;
19193;SDS011;9729;52.296;13.260;2022-07-23T00:30:59;9.07;;;7.40;;
19193;SDS011;9729;52.296;13.260;2022-07-23T00:33:27;9.43;;;7.37;;
19193;SDS011;9729;52.296;13.260;2022-07-23T00:35:53;8.03;;;6.97;;
19193;SDS011;9729;52.296;13.260;2022-07-23T00:38:19;14.70;;;7.47;;
19193;SDS011;9729;52.296;13.260;2022-07-23T00:40:46;13.60;;;7.73;;
19193;SDS011;9729;52.296;13.260;2022-07-23T00:43:12;9.23;;;7.23;;
19193;SDS011;9729;52.296;13.260;2022-07-23T00:45:39;10.30;;;8.10;;
19193;SDS011;9729;52.296;13.260;2022-07-23T00:48:06;9.10;;;7.90;;
19193;SDS011;9729;52.296;13.260;2022-07-23T00:50:33;12.07;;;8.27;;
19193;SDS011;9729;52.296;13.260;2022-07-23T00:53:00;14.30;;;9.10;;
19193;SDS011;9729;52.296;13.260;2022-07-23T00:55:26;10.27;;;9.17;;
19193;SDS011;9729;52.296;13.260;2022-07-23T00:57:53;12.80;;;9.70;;
19193;SDS011;9729;52.296;13.260;2022-07-23T01:00:21;11.13;;;9.47;;
19193;SDS011;9729;52.296;13.260;2022-07-23T01:02:48;17.43;;;10.63;;
19193;SDS011;9729;52.296;13.260;2022-07-23T01:05:14;17.97;;;11.73;;
19193;SDS011;9729;52.296;13.260;2022-07-23T01:07:43;19.13;;;11.53;;
19193;SDS011;9729;52.296;13.260;2022-07-23T01:10:10;19.23;;;10.70;;
19193;SDS011;9729;52.296;13.260;2022-07-23T01:12:50;17.47;;;9.60;;
19193;SDS011;9729;52.296;13.260;2022-07-23T01:15:17;13.50;;;9.33;;
19193;SDS011;9729;52.296;13.260;2022-07-23T01:17:43;11.40;;;8.93;;
19193;SDS011;9729;52.296;13.260;2022-07-23T01:20:10;10.30;;;9.13;;
19193;SDS011;9729;52.296;13.260;2022-07-23T01:22:37;12.27;;;8.47;;
19193;SDS011;9729;52.296;13.260;2022-07-23T01:25:04;13.63;;;8.97;;
19193;SDS011;9729;52.296;13.260;2022-07-23T01:27:32;11.60;;;8.60;;
19193;SDS011;9729;52.296;13.260;2022-07-23T01:29:59;12.83;;;8.30;;
19193;SDS011;9729;52.296;13.260;2022-07-23T01:32:27;12.80;;;7.80;;
19193;SDS011;9729;52.296;13.260;2022-07-23T01:34:53;15.67;;;8.73;;
19193;SDS011;9729;52.296;13.260;2022-07-23T01:37:19;14.87;;;8.67;;
19193;SDS011;9729;52.296;13.260;2022-07-23T01:39:47;15.77;;;8.57;;
19193;SDS011;9729;52.296;13.260;2022-07-23T01:42:14;11.57;;;7.90;;
19193;SDS011;9729;52.296;13.260;2022-07-23T01:44:40;13.87;;;9.00;;
19193;SDS011;9729;52.296;13.260;2022-07-23T01:47:07;15.70;;;8.83;;
19193;SDS011;9729;52.296;13.260;2022-07-23T01:49:33;13.33;;;8.97;;
19193;SDS011;9729;52.296;13.260;2022-07-23T01:52:00;14.50;;;8.93;;
19193;SDS011;9729;52.296;13.260;2022-07-23T01:54:27;15.83;;;9.47;;
19193;SDS011;9729;52.296;13.260;2022-07-23T01:56:56;18.23;;;8.93;;
19193;SDS011;9729;52.296;13.260;2022-07-23T01:59:22;11.67;;;7.83;;
19193;SDS011;9729;52.296;13.260;2022-07-23T02:01:49;13.00;;;8.70;;
19193;SDS011;9729;52.296;13.260;2022-07-23T02:04:16;9.27;;;8.10;;
19193;SDS011;9729;52.296;13.260;2022-07-23T02:06:42;13.63;;;8.57;;
19193;SDS011;9729;52.296;13.260;2022-07-23T02:09:09;11.57;;;7.90;;
19193;SDS011;9729;52.296;13.260;2022-07-23T02:11:35;13.67;;;7.77;;
19193;SDS011;9729;52.296;13.260;2022-07-23T02:14:03;10.03;;;8.30;;
19193;SDS011;9729;52.296;13.260;2022-07-23T02:16:30;10.83;;;7.10;;
19193;SDS011;9729;52.296;13.260;2022-07-23T02:18:56;16.67;;;8.57;;
19193;SDS011;9729;52.296;13.260;2022-07-23T02:21:22;9.97;;;7.40;;
19193;SDS011;9729;52.296;13.260;2022-07-23T02:23:49;15.93;;;7.67;;
19193;SDS011;9729;52.296;13.260;2022-07-23T02:26:15;11.13;;;7.60;;
19193;SDS011;9729;52.296;13.260;2022-07-23T02:28:41;13.80;;;7.83;;
19193;SDS011;9729;52.296;13.260;2022-07-23T02:31:09;12.00;;;7.93;;
19193;SDS011;9729;52.296;13.260;2022-07-23T02:33:35;12.03;;;7.87;;
19193;SDS011;9729;52.296;13.260;2022-07-23T02:36:02;12.90;;;8.33;;
19193;SDS011;9729;52.296;13.260;2022-07-23T02:38:29;10.87;;;8.13;;
19193;SDS011;9729;52.296;13.260;2022-07-23T02:40:56;10.50;;;8.27;;
19193;SDS011;9729;52.296;13.260;2022-07-23T02:43:22;14.17;;;8.63;;
19193;SDS011;9729;52.296;13.260;2022-07-23T02:45:49;11.13;;;7.87;;
19193;SDS011;9729;52.296;13.260;2022-07-23T02:48:16;12.60;;;9.18;;
19193;SDS011;9729;52.296;13.260;2022-07-23T02:50:43;13.63;;;8.63;;
19193;SDS011;9729;52.296;13.260;2022-07-23T02:53:09;13.03;;;8.33;;
19193;SDS011;9729;52.296;13.260;2022-07-23T02:55:35;11.03;;;8.17;;
19193;SDS011;9729;52.296;13.260;2022-07-23T02:58:02;13.37;;;8.13;;
19193;SDS011;9729;52.296;13.260;2022-07-23T03:00:28;9.77;;;7.73;;
19193;SDS011;9729;52.296;13.260;2022-07-23T03:02:54;10.77;;;7.70;;
19193;SDS011;9729;52.296;13.260;2022-07-23T03:05:22;15.00;;;8.10;;
19193;SDS011;9729;52.296;13.260;2022-07-23T03:07:49;13.80;;;7.40;;
19193;SDS011;9729;52.296;13.260;2022-07-23T03:10:15;12.53;;;7.87;;
19193;SDS011;9729;52.296;13.260;2022-07-23T03:12:42;9.67;;;7.77;;
19193;SDS011;9729;52.296;13.260;2022-07-23T03:15:09;10.50;;;7.70;;
19193;SDS011;9729;52.296;13.260;2022-07-23T03:17:35;12.13;;;8.50;;
19193;SDS011;9729;52.296;13.260;2022-07-23T03:20:02;13.10;;;7.90;;
19193;SDS011;9729;52.296;13.260;2022-07-23T03:22:30;11.33;;;7.07;;
19193;SDS011;9729;52.296;13.260;2022-07-23T03:24:56;11.27;;;7.80;;
19193;SDS011;9729;52.296;13.260;2022-07-23T03:27:23;13.37;;;7.17;;
19193;SDS011;9729;52.296;13.260;2022-07-23T03:29:52;11.33;;;7.20;;
19193;SDS011;9729;52.296;13.260;2022-07-23T03:32:19;9.43;;;7.37;;
19193;SDS011;9729;52.296;13.260;2022-07-23T03:34:46;12.50;;;6.93;;
19193;SDS011;9729;52.296;13.260;2022-07-23T03:37:12;12.03;;;7.40;;
19193;SDS011;9729;52.296;13.260;2022-07-23T03:39:40;13.03;;;7.20;;
19193;SDS011;9729;52.296;13.260;2022-07-23T03:42:07;14.17;;;7.60;;
19193;SDS011;9729;52.296;13.260;2022-07-23T03:44:34;10.73;;;6.90;;
19193;SDS011;9729;52.296;13.260;2022-07-23T03:47:01;10.77;;;7.33;;
19193;SDS011;9729;52.296;13.260;2022-07-23T03:49:28;9.50;;;6.53;;
19193;SDS011;9729;52.296;13.260;2022-07-23T03:51:54;10.33;;;6.57;;
19193;SDS011;9729;52.296;13.260;2022-07-23T03:54:21;10.37;;;6.80;;
19193;SDS011;9729;52.296;13.260;2022-07-23T03:56:48;10.97;;;6.77;;
19193;SDS011;9729;52.296;13.260;2022-07-23T03:59:15;10.73;;;6.63;;
19193;SDS011;9729;52.296;13.260;2022-07-23T04:01:41;13.37;;;7.57;;
19193;SDS011;9729;52.296;13.260;2022-07-23T04:04:08;10.07;;;6.63;;
19193;SDS011;9729;52.296;13.260;2022-07-23T04:06:35;10.13;;;6.53;;
19193;SDS011;9729;52.296;13.260;2022-07-23T04:09:01;14.20;;;7.27;;
19193;SDS011;9729;52.296;13.260;2022-07-23T04:11:28;12.53;;;7.23;;
19193;SDS011;9729;52.296;13.260;2022-07-23T04:13:56;11.90;;;7.60;;
19193;SDS011;9729;52.296;13.260;2022-07-23T04:16:22;16.00;;;6.47;;
19193;SDS011;9729;52.296;13.260;2022-07-23T04:18:48;11.97;;;6.77;;
19193;SDS011;9729;52.296;13.260;2022-07-23T04:21:15;11.60;;;7.67;;
19193;SDS011;9729;52.296;13.260;2022-07-23T04:23:41;11.47;;;8.07;;
19193;SDS011;9729;52.296;13.260;2022-07-23T04:26:08;12.83;;;8.23;;
19193;SDS011;9729;52.296;13.260;2022-07-23T04:28:34;11.30;;;6.77;;
19193;SDS011;9729;52.296;13.260;2022-07-23T04:31:02;15.73;;;9.02;;
19193;SDS011;9729;52.296;13.260;2022-07-23T04:33:28;15.03;;;8.30;;
19193;SDS011;9729;52.296;13.260;2022-07-23T04:35:55;16.47;;;8.80;;
19193;SDS011;9729;52.296;13.260;2022-07-23T04:38:21;14.90;;;8.97;;
19193;SDS011;9729;52.296;13.260;2022-07-23T04:40:48;13.80;;;8.40;;
19193;SDS011;9729;52.296;13.260;2022-07-23T04:43:14;14.43;;;7.87;;
19193;SDS011;9729;52.296;13.260;2022-07-23T04:45:40;17.77;;;8.83;;
19193;SDS011;9729;52.296;13.260;2022-07-23T04:48:08;18.33;;;10.33;;
19193;SDS011;9729;52.296;13.260;2022-07-23T04:50:34;18.47;;;9.70;;
19193;SDS011;9729;52.296;13.260;2022-07-23T04:53:01;18.57;;;9.57;;
19193;SDS011;9729;52.296;13.260;2022-07-23T04:55:28;17.60;;;9.37;;
19193;SDS011;9729;52.296;13.260;2022-07-23T04:57:55;15.97;;;8.87;;
19193;SDS011;9729;52.296;13.260;2022-07-23T05:00:21;16.93;;;8.83;;
19193;SDS011;9729;52.296;13.260;2022-07-23T05:02:48;18.17;;;8.93;;
19193;SDS011;9729;52.296;13.260;2022-07-23T05:05:15;17.97;;;8.97;;
19193;SDS011;9729;52.296;13.260;2022-07-23T05:07:42;10.10;;;7.30;;
19193;SDS011;9729;52.296;13.260;2022-07-23T05:10:08;13.50;;;8.50;;
19193;SDS011;9729;52.296;13.260;2022-07-23T05:12:35;15.90;;;7.87;;
19193;SDS011;9729;52.296;13.260;2022-07-23T05:15:01;13.47;;;8.43;;
19193;SDS011;9729;52.296;13.260;2022-07-23T05:17:27;15.40;;;8.50;;
19193;SDS011;9729;52.296;13.260;2022-07-23T05:19:54;14.07;;;8.20;;
19193;SDS011;9729;52.296;13.260;2022-07-23T05:22:22;13.00;;;8.00;;
19193;SDS011;9729;52.296;13.260;2022-07-23T05:24:48;18.57;;;8.23;;
19193;SDS011;9729;52.296;13.260;2022-07-23T05:27:14;10.70;;;7.23;;
19193;SDS011;9729;52.296;13.260;2022-07-23T05:29:41;11.70;;;7.23;;
19193;SDS011;9729;52.296;13.260;2022-07-23T05:32:07;13.27;;;7.10;;
19193;SDS011;9729;52.296;13.260;2022-07-23T05:34:34;11.93;;;6.10;;
19193;SDS011;9729;52.296;13.260;2022-07-23T05:37:00;15.30;;;7.43;;
19193;SDS011;9729;52.296;13.260;2022-07-23T05:39:28;9.10;;;7.37;;
19193;SDS011;9729;52.296;13.260;2022-07-23T05:41:56;11.90;;;6.00;;
19193;SDS011;9729;52.296;13.260;2022-07-23T05:44:23;15.40;;;7.03;;
19193;SDS011;9729;52.296;13.260;2022-07-23T05:46:49;13.87;;;6.73;;
19193;SDS011;9729;52.296;13.260;2022-07-23T05:49:15;11.17;;;7.07;;
19193;SDS011;9729;52.296;13.260;2022-07-23T05:51:42;23.33;;;8.10;;
19193;SDS011;9729;52.296;13.260;2022-07-23T05:54:08;13.80;;;8.03;;
19193;SDS011;9729;52.296;13.260;2022-07-23T05:56:36;12.17;;;7.13;;
19193;SDS011;9729;52.296;13.260;2022-07-23T05:59:02;12.40;;;7.57;;
19193;SDS011;9729;52.296;13.260;2022-07-23T06:01:28;14.20;;;7.73;;
19193;SDS011;9729;52.296;13.260;2022-07-23T06:03:55;13.10;;;8.50;;
19193;SDS011;9729;52.296;13.260;2022-07-23T06:06:21;12.70;;;8.03;;
19193;SDS011;9729;52.296;13.260;2022-07-23T06:08:48;17.03;;;8.43;;
19193;SDS011;9729;52.296;13.260;2022-07-23T06:11:14;16.23;;;8.10;;
19193;SDS011;9729;52.296;13.260;2022-07-23T06:13:42;10.37;;;6.60;;
19193;SDS011;9729;52.296;13.260;2022-07-23T06:16:09;13.67;;;7.70;;
19193;SDS011;9729;52.296;13.260;2022-07-23T06:18:35;11.57;;;7.53;;
19193;SDS011;9729;52.296;13.260;2022-07-23T06:21:01;16.50;;;7.17;;
19193;SDS011;9729;52.296;13.260;2022-07-23T06:23:28;18.20;;;7.80;;
19193;SDS011;9729;52.296;13.260;2022-07-23T06:25:55;9.53;;;5.20;;
19193;SDS011;9729;52.296;13.260;2022-07-23T06:28:21;10.50;;;6.30;;
19193;SDS011;9729;52.296;13.260;2022-07-23T06:30:49;9.63;;;5.93;;
19193;SDS011;9729;52.296;13.260;2022-07-23T06:33:15;15.23;;;5.57;;
19193;SDS011;9729;52.296;13.260;2022-07-23T06:35:41;11.80;;;5.93;;
19193;SDS011;9729;52.296;13.260;2022-07-23T06:38:08;12.63;;;5.60;;
19193;SDS011;9729;52.296;13.260;2022-07-23T06:40:34;12.87;;;6.07;;
19193;SDS011;9729;52.296;13.260;2022-07-23T06:43:00;11.40;;;6.33;;
19193;SDS011;9729;52.296;13.260;2022-07-23T06:45:27;14.03;;;6.50;;
19193;SDS011;9729;52.296;13.260;2022-07-23T06:47:55;13.43;;;6.87;;
19193;SDS011;9729;52.296;13.260;2022-07-23T06:50:21;12.47;;;6.17;;
19193;SDS011;9729;52.296;13.260;2022-07-23T06:52:47;15.07;;;6.37;;
19193;SDS011;9729;52.296;13.260;2022-07-23T06:55:14;11.80;;;6.50;;
19193;SDS011;9729;52.296;13.260;2022-07-23T06:57:40;16.13;;;6.37;;
19193;SDS011;9729;52.296;13.260;2022-07-23T07:00:07;17.33;;;8.03;;
19193;SDS011;9729;52.296;13.260;2022-07-23T07:02:34;11.63;;;6.97;;
19193;SDS011;9729;52.296;13.260;2022-07-23T07:05:02;14.43;;;6.53;;
19193;SDS011;9729;52.296;13.260;2022-07-23T07:07:29;11.37;;;7.00;;
19193;SDS011;9729;52.296;13.260;2022-07-23T07:09:55;16.47;;;7.63;;
19193;SDS011;9729;52.296;13.260;2022-07-23T07:12:22;13.83;;;5.97;;
19193;SDS011;9729;52.296;13.260;2022-07-23T07:14:48;12.13;;;6.03;;
19193;SDS011;9729;52.296;13.260;2022-07-23T07:17:14;14.47;;;6.40;;
19193;SDS011;9729;52.296;13.260;2022-07-23T07:19:41;10.77;;;5.67;;
19193;SDS011;9729;52.296;13.260;2022-07-23T07:22:09;14.37;;;6.30;;
19193;SDS011;9729;52.296;13.260;2022-07-23T07:24:35;9.67;;;6.17;;
19193;SDS011;9729;52.296;13.260;2022-07-23T07:27:03;5.63;;;3.83;;
19193;SDS011;9729;52.296;13.260;2022-07-23T07:29:29;0.10;;;0.10;;
19193;SDS011;9729;52.296;13.260;2022-07-23T07:31:55;0.10;;;0.10;;
19193;SDS011;9729;52.296;13.260;2022-07-23T07:34:22;0.23;;;0.23;;
19193;SDS011;9729;52.296;13.260;2022-07-23T07:36:48;0.00;;;0.00;;
19193;SDS011;9729;52.296;13.260;2022-07-23T07:39:16;0.83;;;0.83;;
19193;SDS011;9729;52.296;13.260;2022-07-23T07:41:43;0.00;;;0.00;;
19193;SDS011;9729;52.296;13.260;2022-07-23T07:44:09;2.37;;;1.07;;
19193;SDS011;9729;52.296;13.260;2022-07-23T07:46:36;0.30;;;0.30;;
19193;SDS011;9729;52.296;13.260;2022-07-23T07:49:02;0.00;;;0.00;;
19193;SDS011;9729;52.296;13.260;2022-07-23T07:51:29;0.10;;;0.10;;
19193;SDS011;9729;52.296;13.260;2022-07-23T07:53:55;0.87;;;0.87;;
19193;SDS011;9729;52.296;13.260;2022-07-23T07:56:23;0.10;;;0.10;;
19193;SDS011;9729;52.296;13.260;2022-07-23T07:58:49;0.10;;;0.10;;
19193;SDS011;9729;52.296;13.260;2022-07-23T08:01:16;0.10;;;0.10;;
19193;SDS011;9729;52.296;13.260;2022-07-23T08:03:44;0.00;;;0.00;;
19193;SDS011;9729;52.296;13.260;2022-07-23T08:06:10;0.10;;;0.10;;
19193;SDS011;9729;52.296;13.260;2022-07-23T08:08:36;0.97;;;0.87;;
19193;SDS011;9729;52.296;13.260;2022-07-23T08:11:03;0.10;;;0.10;;
19193;SDS011;9729;52.296;13.260;2022-07-23T08:13:31;0.00;;;0.00;;
19193;SDS011;9729;52.296;13.260;2022-07-23T08:15:57;0.20;;;0.20;;
19193;SDS011;9729;52.296;13.260;2022-07-23T08:18:24;0.07;;;0.07;;
19193;SDS011;9729;52.296;13.260;2022-07-23T08:20:50;0.20;;;0.20;;
19193;SDS011;9729;52.296;13.260;2022-07-23T08:23:17;0.00;;;0.00;;
19193;SDS011;9729;52.296;13.260;2022-07-23T08:25:45;0.17;;;0.17;;
19193;SDS011;9729;52.296;13.260;2022-07-23T08:28:12;0.33;;;0.33;;
19193;SDS011;9729;52.296;13.260;2022-07-23T08:30:41;0.70;;;0.70;;
19193;SDS011;9729;52.296;13.260;2022-07-23T08:33:09;0.00;;;0.00;;
19193;SDS011;9729;52.296;13.260;2022-07-23T08:35:38;0.00;;;0.00;;
19193;SDS011;9729;52.296;13.260;2022-07-23T08:38:07;0.50;;;0.40;;
19193;SDS011;9729;52.296;13.260;2022-07-23T08:40:34;0.10;;;0.10;;
19193;SDS011;9729;52.296;13.260;2022-07-23T08:43:03;0.00;;;0.00;;
19193;SDS011;9729;52.296;13.260;2022-07-23T08:45:36;0.00;;;0.00;;
19193;SDS011;9729;52.296;13.260;2022-07-23T08:48:06;3.50;;;1.43;;
19193;SDS011;9729;52.296;13.260;2022-07-23T08:50:36;0.73;;;0.67;;
19193;SDS011;9729;52.296;13.260;2022-07-23T08:53:04;1.20;;;1.10;;
19193;SDS011;9729;52.296;13.260;2022-07-23T08:55:32;0.83;;;0.30;;
19193;SDS011;9729;52.296;13.260;2022-07-23T08:57:58;0.47;;;0.47;;
19193;SDS011;9729;52.296;13.260;2022-07-23T09:00:25;0.07;;;0.07;;
19193;SDS011;9729;52.296;13.260;2022-07-23T09:02:52;0.07;;;0.07;;
19193;SDS011;9729;52.296;13.260;2022-07-23T09:05:20;3.10;;;1.03;;
19193;SDS011;9729;52.296;13.260;2022-07-23T09:08:10;0.00;;;0.00;;
19193;SDS011;9729;52.296;13.260;2022-07-23T09:10:47;6.87;;;2.80;;
19193;SDS011;9729;52.296;13.260;2022-07-23T09:13:26;10.40;;;6.50;;
19193;SDS011;9729;52.296;13.260;2022-07-23T09:15:57;11.97;;;6.67;;
19193;SDS011;9729;52.296;13.260;2022-07-23T09:18:29;13.53;;;7.20;;
19193;SDS011;9729;52.296;13.260;2022-07-23T09:21:08;8.13;;;6.23;;
19193;SDS011;9729;52.296;13.260;2022-07-23T09:23:39;12.97;;;7.13;;
19193;SDS011;9729;52.296;13.260;2022-07-23T09:26:23;15.67;;;6.17;;
19193;SDS011;9729;52.296;13.260;2022-07-23T09:29:03;11.07;;;5.47;;
19193;SDS011;9729;52.296;13.260;2022-07-23T09:31:32;11.77;;;5.97;;
19193;SDS011;9729;52.296;13.260;2022-07-23T09:34:07;9.80;;;5.63;;
19193;SDS011;9729;52.296;13.260;2022-07-23T09:36:36;11.87;;;5.73;;
19193;SDS011;9729;52.296;13.260;2022-07-23T09:39:03;13.63;;;6.10;;
19193;SDS011;9729;52.296;13.260;2022-07-23T09:41:33;7.80;;;5.07;;
19193;SDS011;9729;52.296;13.260;2022-07-23T09:44:06;7.67;;;4.73;;
19193;SDS011;9729;52.296;13.260;2022-07-23T09:46:33;11.53;;;5.23;;
19193;SDS011;9729;52.296;13.260;2022-07-23T09:48:59;11.87;;;5.73;;
19193;SDS011;9729;52.296;13.260;2022-07-23T09:51:41;7.97;;;4.87;;
19193;SDS011;9729;52.296;13.260;2022-07-23T09:54:20;9.70;;;5.33;;
19193;SDS011;9729;52.296;13.260;2022-07-23T09:56:51;11.10;;;5.70;;
19193;SDS011;9729;52.296;13.260;2022-07-23T09:59:18;10.67;;;5.10;;
19193;SDS011;9729;52.296;13.260;2022-07-23T10:01:50;10.53;;;5.37;;
19193;SDS011;9729;52.296;13.260;2022-07-23T10:04:18;9.13;;;5.27;;
19193;SDS011;9729;52.296;13.260;2022-07-23T10:06:46;11.57;;;5.10;;
19193;SDS011;9729;52.296;13.260;2022-07-23T10:09:13;12.77;;;5.00;;
19193;SDS011;9729;52.296;13.260;2022-07-23T10:11:42;9.53;;;5.47;;
19193;SDS011;9729;52.296;13.260;2022-07-23T10:14:09;10.03;;;5.27;;
19193;SDS011;9729;52.296;13.260;2022-07-23T10:16:35;14.70;;;5.00;;
19193;SDS011;9729;52.296;13.260;2022-07-23T10:19:03;10.77;;;5.10;;
19193;SDS011;9729;52.296;13.260;2022-07-23T10:21:30;9.17;;;4.80;;
19193;SDS011;9729;52.296;13.260;2022-07-23T10:24:10;8.20;;;5.40;;
19193;SDS011;9729;52.296;13.260;2022-07-23T10:26:45;7.23;;;4.87;;
19193;SDS011;9729;52.296;13.260;2022-07-23T10:29:21;11.20;;;4.67;;
19193;SDS011;9729;52.296;13.260;2022-07-23T10:31:58;9.27;;;4.70;;
19193;SDS011;9729;52.296;13.260;2022-07-23T10:34:30;9.40;;;5.07;;
19193;SDS011;9729;52.296;13.260;2022-07-23T10:37:04;10.10;;;4.90;;
19193;SDS011;9729;52.296;13.260;2022-07-23T10:39:35;7.33;;;4.30;;
19193;SDS011;9729;52.296;13.260;2022-07-23T10:42:09;9.20;;;5.43;;
19193;SDS011;9729;52.296;13.260;2022-07-23T10:44:40;9.57;;;4.70;;
19193;SDS011;9729;52.296;13.260;2022-07-23T10:47:08;6.03;;;3.93;;
19193;SDS011;9729;52.296;13.260;2022-07-23T10:49:52;8.73;;;3.33;;
19193;SDS011;9729;52.296;13.260;2022-07-23T10:52:21;10.03;;;3.63;;
19193;SDS011;9729;52.296;13.260;2022-07-23T10:54:51;10.53;;;4.23;;
19193;SDS011;9729;52.296;13.260;2022-07-23T10:57:19;6.83;;;4.50;;
19193;SDS011;9729;52.296;13.260;2022-07-23T11:02:40;10.87;;;4.60;;
19193;SDS011;9729;52.296;13.260;2022-07-23T11:05:07;7.97;;;4.50;;
19193;SDS011;9729;52.296;13.260;2022-07-23T11:07:35;7.93;;;4.50;;
19193;SDS011;9729;52.296;13.260;2022-07-23T11:10:04;8.73;;;4.47;;
19193;SDS011;9729;52.296;13.260;2022-07-23T11:12:31;7.97;;;4.00;;
19193;SDS011;9729;52.296;13.260;2022-07-23T11:15:01;8.23;;;4.33;;
19193;SDS011;9729;52.296;13.260;2022-07-23T11:17:29;5.00;;;3.73;;
19193;SDS011;9729;52.296;13.260;2022-07-23T11:22:50;6.33;;;3.60;;
19193;SDS011;9729;52.296;13.260;2022-07-23T11:25:32;10.60;;;4.27;;
19193;SDS011;9729;52.296;13.260;2022-07-23T11:28:08;8.73;;;4.10;;
19193;SDS011;9729;52.296;13.260;2022-07-23T11:30:39;6.93;;;4.30;;
19193;SDS011;9729;52.296;13.260;2022-07-23T11:33:17;7.00;;;4.30;;
19193;SDS011;9729;52.296;13.260;2022-07-23T11:35:49;10.80;;;4.60;;
19193;SDS011;9729;52.296;13.260;2022-07-23T11:38:18;9.17;;;4.50;;
19193;SDS011;9729;52.296;13.260;2022-07-23T11:40:48;10.27;;;4.43;;
19193;SDS011;9729;52.296;13.260;2022-07-23T11:43:15;9.23;;;4.67;;
19193;SDS011;9729;52.296;13.260;2022-07-23T11:45:43;6.13;;;4.10;;
19193;SDS011;9729;52.296;13.260;2022-07-23T11:48:15;10.00;;;4.03;;
19193;SDS011;9729;52.296;13.260;2022-07-23T11:50:42;8.20;;;4.10;;
19193;SDS011;9729;52.296;13.260;2022-07-23T11:53:09;8.40;;;4.80;;
19193;SDS011;9729;52.296;13.260;2022-07-23T11:55:35;7.67;;;4.67;;
19193;SDS011;9729;52.296;13.260;2022-07-23T11:58:04;7.57;;;4.07;;
19193;SDS011;9729;52.296;13.260;2022-07-23T12:00:31;10.43;;;4.23;;
19193;SDS011;9729;52.296;13.260;2022-07-23T12:02:58;6.87;;;4.37;;
19193;SDS011;9729;52.296;13.260;2022-07-23T12:05:27;8.40;;;4.20;;
19193;SDS011;9729;52.296;13.260;2022-07-23T12:07:55;6.23;;;3.93;;
19193;SDS011;9729;52.296;13.260;2022-07-23T12:10:24;8.57;;;4.07;;
19193;SDS011;9729;52.296;13.260;2022-07-23T12:12:52;6.60;;;4.33;;
19193;SDS011;9729;52.296;13.260;2022-07-23T12:15:21;10.10;;;4.83;;
19193;SDS011;9729;52.296;13.260;2022-07-23T12:17:48;5.10;;;3.97;;
19193;SDS011;9729;52.296;13.260;2022-07-23T12:20:17;4.60;;;3.53;;
19193;SDS011;9729;52.296;13.260;2022-07-23T12:22:47;8.18;;;4.68;;
19193;SDS011;9729;52.296;13.260;2022-07-23T12:25:15;8.67;;;4.60;;
19193;SDS011;9729;52.296;13.260;2022-07-23T12:27:42;5.43;;;3.72;;
19193;SDS011;9729;52.296;13.260;2022-07-23T12:30:17;9.23;;;4.65;;
19193;SDS011;9729;52.296;13.260;2022-07-23T12:32:46;9.40;;;4.95;;
19193;SDS011;9729;52.296;13.260;2022-07-23T12:35:14;8.73;;;4.67;;
19193;SDS011;9729;52.296;13.260;2022-07-23T12:37:41;6.23;;;4.60;;
19193;SDS011;9729;52.296;13.260;2022-07-23T12:40:18;13.00;;;4.67;;
19193;SDS011;9729;52.296;13.260;2022-07-23T12:42:48;10.63;;;5.10;;
19193;SDS011;9729;52.296;13.260;2022-07-23T12:45:16;8.63;;;4.47;;
19193;SDS011;9729;52.296;13.260;2022-07-23T12:47:58;13.83;;;4.90;;
19193;SDS011;9729;52.296;13.260;2022-07-23T12:50:35;10.53;;;4.60;;
19193;SDS011;9729;52.296;13.260;2022-07-23T12:53:04;8.33;;;4.10;;
19193;SDS011;9729;52.296;13.260;2022-07-23T12:55:31;6.68;;;5.05;;
19193;SDS011;9729;52.296;13.260;2022-07-23T12:58:03;9.10;;;5.67;;
19193;SDS011;9729;52.296;13.260;2022-07-23T13:00:31;7.37;;;4.30;;
19193;SDS011;9729;52.296;13.260;2022-07-23T13:02:59;8.90;;;4.30;;
19193;SDS011;9729;52.296;13.260;2022-07-23T13:05:25;9.07;;;5.07;;
19193;SDS011;9729;52.296;13.260;2022-07-23T13:07:51;9.70;;;4.23;;
19193;SDS011;9729;52.296;13.260;2022-07-23T13:10:18;5.77;;;4.37;;
19193;SDS011;9729;52.296;13.260;2022-07-23T13:12:44;7.50;;;4.30;;
19193;SDS011;9729;52.296;13.260;2022-07-23T13:15:11;8.23;;;4.53;;
19193;SDS011;9729;52.296;13.260;2022-07-23T13:17:37;8.53;;;4.17;;
19193;SDS011;9729;52.296;13.260;2022-07-23T13:20:05;7.43;;;4.40;;
19193;SDS011;9729;52.296;13.260;2022-07-23T13:22:33;5.07;;;4.23;;
19193;SDS011;9729;52.296;13.260;2022-07-23T13:25:00;13.33;;;3.97;;
19193;SDS011;9729;52.296;13.260;2022-07-23T13:27:27;9.60;;;4.13;;
19193;SDS011;9729;52.296;13.260;2022-07-23T13:29:53;5.20;;;3.80;;
19193;SDS011;9729;52.296;13.260;2022-07-23T13:32:20;7.22;;;4.20;;
19193;SDS011;9729;52.296;13.260;2022-07-23T13:34:47;10.82;;;4.03;;
19193;SDS011;9729;52.296;13.260;2022-07-23T13:37:15;6.18;;;4.05;;
19193;SDS011;9729;52.296;13.260;2022-07-23T13:39:41;9.20;;;3.72;;
19193;SDS011;9729;52.296;13.260;2022-07-23T13:42:08;11.73;;;4.22;;
19193;SDS011;9729;52.296;13.260;2022-07-23T13:44:34;5.67;;;3.50;;
19193;SDS011;9729;52.296;13.260;2022-07-23T13:47:01;5.77;;;3.50;;
19193;SDS011;9729;52.296;13.260;2022-07-23T13:49:27;6.50;;;3.87;;
19193;SDS011;9729;52.296;13.260;2022-07-23T13:51:54;9.40;;;4.03;;
19193;SDS011;9729;52.296;13.260;2022-07-23T13:54:21;7.83;;;4.23;;
19193;SDS011;9729;52.296;13.260;2022-07-23T13:56:50;6.37;;;3.23;;
19193;SDS011;9729;52.296;13.260;2022-07-23T13:59:16;7.87;;;3.83;;
19193;SDS011;9729;52.296;13.260;2022-07-23T14:01:43;6.28;;;3.45;;
19193;SDS011;9729;52.296;13.260;2022-07-23T14:04:10;6.03;;;3.90;;
19193;SDS011;9729;52.296;13.260;2022-07-23T14:06:36;7.25;;;3.20;;
19193;SDS011;9729;52.296;13.260;2022-07-23T14:09:02;9.10;;;3.97;;
19193;SDS011;9729;52.296;13.260;2022-07-23T14:11:30;12.07;;;3.60;;
19193;SDS011;9729;52.296;13.260;2022-07-23T14:13:56;6.15;;;3.40;;
19193;SDS011;9729;52.296;13.260;2022-07-23T14:16:23;8.18;;;3.55;;
19193;SDS011;9729;52.296;13.260;2022-07-23T14:18:50;10.70;;;3.85;;
19193;SDS011;9729;52.296;13.260;2022-07-23T14:21:16;7.72;;;3.25;;
19193;SDS011;9729;52.296;13.260;2022-07-23T14:23:42;7.30;;;3.35;;
19193;SDS011;9729;52.296;13.260;2022-07-23T14:26:09;10.30;;;3.40;;
19193;SDS011;9729;52.296;13.260;2022-07-23T14:28:38;6.03;;;2.83;;
19193;SDS011;9729;52.296;13.260;2022-07-23T14:31:05;4.50;;;3.10;;
19193;SDS011;9729;52.296;13.260;2022-07-23T14:33:31;6.70;;;3.40;;
19193;SDS011;9729;52.296;13.260;2022-07-23T14:35:57;5.60;;;2.70;;
19193;SDS011;9729;52.296;13.260;2022-07-23T14:38:24;11.45;;;2.83;;
19193;SDS011;9729;52.296;13.260;2022-07-23T14:40:50;6.53;;;3.10;;
19193;SDS011;9729;52.296;13.260;2022-07-23T14:43:17;6.55;;;2.80;;
19193;SDS011;9729;52.296;13.260;2022-07-23T14:45:44;5.45;;;3.50;;
19193;SDS011;9729;52.296;13.260;2022-07-23T14:48:11;4.80;;;3.17;;
19193;SDS011;9729;52.296;13.260;2022-07-23T14:50:37;4.68;;;2.65;;